createdAt,value
2022-08-16T00:00:04.194Z,100028.66
2022-08-16T00:02:31.588Z,100037.97
2022-08-16T00:04:59.783Z,100039.88
2022-08-16T00:07:26.705Z,100028.19
2022-08-16T00:09:55.771Z,100028.19
2022-08-16T00:12:23.698Z,100020.78
2022-08-16T00:14:50.116Z,100031.69
2022-08-16T00:17:18.543Z,100037.97
2022-08-16T00:19:45.703Z,100041.84
2022-08-16T00:22:15.186Z,100041.03
2022-08-16T00:24:44.932Z,100044.56
2022-08-16T00:27:13.201Z,100043.75
2022-08-16T00:29:39.720Z,100052.25
2022-08-16T00:32:07.407Z,100044.38
2022-08-16T00:34:43.356Z,100051.44
2022-08-16T00:37:20.600Z,100056.09
2022-08-16T00:39:47.667Z,100059.13
2022-08-16T00:42:14.366Z,100058.84
2022-08-16T00:45:06.256Z,100049.03
2022-08-16T00:47:33.199Z,100050.66
2022-08-16T00:50:01.431Z,100049.81
2022-08-16T00:52:30.167Z,100050.13
2022-08-16T00:54:57.222Z,100046.63
2022-08-16T00:57:23.982Z,100059.44
2022-08-16T00:59:54.703Z,100060.25
2022-08-16T01:02:31.377Z,100064.91
2022-08-16T01:05:10.944Z,100058.66
2022-08-16T01:07:52.082Z,100062.47
2022-08-16T01:10:19.672Z,100064.44
2022-08-16T01:12:46.311Z,100062.78
2022-08-16T01:15:14.357Z,100069.88
2022-08-16T01:17:42.178Z,100064.72
2022-08-16T01:20:24.404Z,100065.84
2022-08-16T01:22:52.316Z,100074.06
2022-08-16T01:25:19.103Z,100076.78
2022-08-16T01:27:48.067Z,100065.84
2022-08-16T01:30:20.072Z,100072.41
2022-08-16T01:32:56.450Z,100072.09
2022-08-16T01:35:30.090Z,100072.09
2022-08-16T01:38:01.855Z,100075.97
2022-08-16T01:40:28.393Z,100083.34
2022-08-16T01:42:55.622Z,100093.47
2022-08-16T01:45:22.617Z,100089.91
2022-08-16T01:47:50.855Z,100086.41
2022-08-16T01:50:42.245Z,100088.00
2022-08-16T01:53:04.103Z,100081.72
2022-08-16T01:55:35.625Z,100091.03
2022-08-16T01:58:02.231Z,100084.75
2022-08-16T02:00:29.943Z,100096.19
2022-08-16T02:02:56.530Z,100091.88
2022-08-16T02:05:23.581Z,100099.53
2022-08-16T02:07:51.877Z,100089.91
2022-08-16T02:10:18.738Z,100082.84
2022-08-16T02:12:51.900Z,100092.16
2022-08-16T02:15:24.803Z,100094.06
2022-08-16T02:17:52.580Z,100091.66
2022-08-16T02:20:19.103Z,100095.19
2022-08-16T02:22:53.232Z,100100.66
2022-08-16T02:25:21.690Z,100097.13
2022-08-16T02:27:50.742Z,100104.19
2022-08-16T02:30:37.130Z,100096.00
2022-08-16T02:33:04.480Z,100090.88
2022-08-16T02:35:32.103Z,100084.28
2022-08-16T02:38:08.615Z,100075.56
2022-08-16T02:40:35.500Z,100081.34
2022-08-16T02:43:02.702Z,100080.56
2022-08-16T02:45:35.413Z,100091.16
2022-08-16T02:48:29.502Z,100089.53
2022-08-16T02:50:54.854Z,100095.81
2022-08-16T02:53:34.583Z,100091.16
2022-08-16T02:56:01.842Z,100091.16
2022-08-16T02:58:28.218Z,100094.19
2022-08-16T03:00:55.947Z,100088.75
2022-08-16T03:03:23.620Z,100094.19
2022-08-16T03:05:52.394Z,100096.13
2022-08-16T03:08:51.874Z,100093.38
2022-08-16T03:11:06.229Z,100098.84
2022-08-16T03:13:43.373Z,100097.25
2022-08-16T03:16:38.130Z,100098.06
2022-08-16T03:19:02.145Z,100098.38
2022-08-16T03:21:28.583Z,100101.41
2022-08-16T03:24:04.917Z,100108.97
2022-08-16T03:26:31.532Z,100106.84
2022-08-16T03:28:58.389Z,100109.28
2022-08-16T03:31:25.882Z,100116.34
2022-08-16T03:34:01.311Z,100122.94
2022-08-16T03:36:30.734Z,100125.97
2022-08-16T03:38:59.393Z,100124.84
2022-08-16T03:41:29.475Z,100125.16
2022-08-16T03:44:12.271Z,100125.97
2022-08-16T03:46:58.555Z,100123.25
2022-08-16T03:49:35.771Z,100122.72
2022-08-16T03:52:04.796Z,100139.91
2022-08-16T03:54:31.471Z,100132.03
2022-08-16T03:56:58.744Z,100139.91
2022-08-16T03:59:25.309Z,100133.63
2022-08-16T04:01:53.540Z,100138.63
2022-08-16T04:04:25.015Z,100147.63
2022-08-16T04:06:59.377Z,100148.41
2022-08-16T04:09:25.709Z,100150.03
2022-08-16T04:11:52.761Z,100148.41
2022-08-16T04:14:33.314Z,100146.00
2022-08-16T04:16:59.961Z,100149.22
2022-08-16T04:19:31.535Z,100144.06
2022-08-16T04:21:58.445Z,100144.56
2022-08-16T04:24:28.940Z,100150.34
2022-08-16T04:26:55.720Z,100156.91
2022-08-16T04:29:24.937Z,100161.56
2022-08-16T04:31:56.836Z,100167.03
2022-08-16T04:34:24.893Z,100163.19
2022-08-16T04:36:52.913Z,100166.53
2022-08-16T04:39:20.129Z,100167.81
2022-08-16T04:41:50.474Z,100163.78
2022-08-16T04:44:52.647Z,100162.06
2022-08-16T04:47:21.109Z,100172.69
2022-08-16T04:49:50.174Z,100171.50
2022-08-16T04:52:33.790Z,100172.28
2022-08-16T04:55:03.485Z,100171.28
2022-08-16T04:57:30.465Z,100172.22
2022-08-16T04:59:56.835Z,100176.06
2022-08-16T05:02:41.477Z,100189.91
2022-08-16T05:05:09.179Z,100182.31
2022-08-16T05:07:58.258Z,100181.22
2022-08-16T05:10:26.491Z,100183.94
2022-08-16T05:12:52.900Z,100187.47
2022-08-16T05:15:20.505Z,100175.75
2022-08-16T05:17:48.733Z,100171.91
2022-08-16T05:20:39.403Z,100176.25
2022-08-16T05:23:11.919Z,100175.44
2022-08-16T05:25:41.135Z,100184.44
2022-08-16T05:28:14.984Z,100191.81
2022-08-16T05:30:41.555Z,100180.59
2022-08-16T05:33:16.325Z,100185.25
2022-08-16T05:35:43.483Z,100186.88
2022-08-16T05:38:32.623Z,100193.13
2022-08-16T05:40:59.672Z,100183.00
2022-08-16T05:43:26.633Z,100184.31
2022-08-16T05:45:53.906Z,100183.53
2022-08-16T05:48:21.305Z,100194.44
2022-08-16T05:50:53.398Z,100201.81
2022-08-16T05:53:19.796Z,100196.38
2022-08-16T05:55:48.551Z,100196.66
2022-08-16T05:58:31.644Z,100205.66
2022-08-16T06:01:00.508Z,100210.63
2022-08-16T06:03:30.508Z,100213.88
2022-08-16T06:06:00.918Z,100210.31
2022-08-16T06:08:32.457Z,100223.97
2022-08-16T06:11:10.321Z,100218.81
2022-08-16T06:13:37.113Z,100227.00
2022-08-16T06:16:08.697Z,100228.13
2022-08-16T06:18:45.078Z,100224.25
2022-08-16T06:21:11.685Z,100232.44
2022-08-16T06:23:40.767Z,100239.53
2022-08-16T06:26:08.072Z,100237.91
2022-08-16T06:28:35.992Z,100244.19
2022-08-16T06:31:03.466Z,100245.31
2022-08-16T06:33:41.869Z,100245.31
2022-08-16T06:36:08.563Z,100242.59
2022-08-16T06:38:35.063Z,100242.25
2022-08-16T06:41:01.419Z,100246.09
2022-08-16T06:43:28.940Z,100244.19
2022-08-16T06:45:55.335Z,100249.66
2022-08-16T06:48:32.738Z,100248.53
2022-08-16T06:50:59.964Z,100248.53
2022-08-16T06:53:26.453Z,100254.00
2022-08-16T06:55:56.117Z,100261.06
2022-08-16T06:58:31.244Z,100259.44
2022-08-16T07:00:59.670Z,100259.16
2022-08-16T07:03:28.343Z,100262.69
2022-08-16T07:05:58.648Z,100265.44
2022-08-16T07:08:25.002Z,100258.03
2022-08-16T07:10:53.857Z,100262.69
2022-08-16T07:13:51.279Z,100265.09
2022-08-16T07:16:07.075Z,100259.97
2022-08-16T07:18:33.573Z,100263.50
2022-08-16T07:21:02.230Z,100267.03
2022-08-16T07:23:37.152Z,100273.00
2022-08-16T07:26:05.610Z,100263.69
2022-08-16T07:28:32.722Z,100273.00
2022-08-16T07:30:59.292Z,100264.50
2022-08-16T07:33:53.571Z,100266.94
2022-08-16T07:36:13.671Z,100268.06
2022-08-16T07:38:48.665Z,100269.97
2022-08-16T07:41:16.427Z,100271.28
2022-08-16T07:43:43.278Z,100273.22
2022-08-16T07:46:37.641Z,100282.50
2022-08-16T07:48:56.509Z,100276.44
2022-08-16T07:51:29.065Z,100273.22
2022-08-16T07:54:02.466Z,100285.16
2022-08-16T07:56:37.086Z,100278.34
2022-08-16T07:59:03.936Z,100277.44
2022-08-16T08:01:31.246Z,100279.34
2022-08-16T08:03:57.960Z,100282.41
2022-08-16T08:06:24.850Z,100292.00
2022-08-16T08:08:52.821Z,100288.47
2022-08-16T08:11:24.107Z,100292.81
2022-08-16T08:13:54.881Z,100299.59
2022-08-16T08:16:21.692Z,100298.47
2022-08-16T08:19:00.514Z,100299.78
2022-08-16T08:22:00.863Z,100303.94
2022-08-16T08:24:15.084Z,100309.91
2022-08-16T08:26:42.846Z,100311.53
2022-08-16T08:29:09.570Z,100307.19
2022-08-16T08:31:36.145Z,100311.81
2022-08-16T08:34:04.769Z,100307.66
2022-08-16T08:36:32.927Z,100310.69
2022-08-16T08:39:00.117Z,100308.78
2022-08-16T08:41:28.358Z,100316.69
2022-08-16T08:43:55.042Z,100310.63
2022-08-16T08:46:22.341Z,100306.88
2022-08-16T08:48:59.743Z,100315.25
2022-08-16T08:51:27.465Z,100314.13
2022-08-16T08:53:58.559Z,100314.66
2022-08-16T08:56:25.852Z,100309.19
2022-08-16T08:58:54.047Z,100306.47
2022-08-16T09:01:31.490Z,100310.00
2022-08-16T09:04:02.751Z,100317.09
2022-08-16T09:06:30.994Z,100317.59
2022-08-16T09:09:02.900Z,100317.88
2022-08-16T09:11:40.796Z,100314.84
2022-08-16T09:14:07.865Z,100316.75
2022-08-16T09:17:02.798Z,100301.72
2022-08-16T09:19:32.185Z,100312.66
2022-08-16T09:22:00.017Z,100318.09
2022-08-16T09:24:47.109Z,100320.22
2022-08-16T09:27:13.631Z,100325.66
2022-08-16T09:29:45.231Z,100317.47
2022-08-16T09:32:12.252Z,100318.28
2022-08-16T09:34:38.734Z,100320.72
2022-08-16T09:37:18.093Z,100317.47
2022-08-16T09:39:50.314Z,100312.53
2022-08-16T09:42:16.907Z,100307.06
2022-08-16T09:45:12.200Z,100302.41
2022-08-16T09:47:57.120Z,100301.59
2022-08-16T09:50:22.612Z,100307.56
2022-08-16T09:52:49.736Z,100305.44
2022-08-16T09:55:16.240Z,100300.50
2022-08-16T09:57:42.612Z,100300.50
2022-08-16T10:00:44.582Z,100302.41
2022-08-16T10:03:06.072Z,100313.63
2022-08-16T10:05:35.644Z,100302.09
2022-08-16T10:08:01.980Z,100295.03
2022-08-16T10:10:48.542Z,100292.78
2022-08-16T10:13:16.336Z,100292.00
2022-08-16T10:15:43.050Z,100299.88
2022-08-16T10:18:56.093Z,100299.06
2022-08-16T10:21:06.244Z,100293.00
2022-08-16T10:23:35.313Z,100296.84
2022-08-16T10:27:17.379Z,100302.31
2022-08-16T10:28:48.049Z,100294.13
2022-08-16T10:31:43.337Z,100295.72
2022-08-16T10:34:30.875Z,100303.63
2022-08-16T10:36:54.539Z,100294.59
2022-08-16T10:39:21.037Z,100298.16
2022-08-16T10:41:47.724Z,100298.16
2022-08-16T10:44:14.132Z,100288.03
2022-08-16T10:46:43.955Z,100286.91
2022-08-16T10:49:16.662Z,100285.28
2022-08-16T10:52:02.954Z,100290.47
2022-08-16T10:54:31.052Z,100286.91
2022-08-16T10:56:57.531Z,100288.84
2022-08-16T10:59:38.368Z,100288.84
2022-08-16T11:02:59.579Z,100297.03
2022-08-16T11:05:12.023Z,100292.38
2022-08-16T11:07:52.073Z,100292.38
2022-08-16T11:10:20.754Z,100292.38
2022-08-16T11:12:48.116Z,100295.91
2022-08-16T11:15:19.283Z,100294.00
2022-08-16T11:17:46.301Z,100289.34
2022-08-16T11:20:41.052Z,100285.81
2022-08-16T11:23:08.805Z,100290.16
2022-08-16T11:31:09.248Z,100299.16
2022-08-16T11:33:55.543Z,100297.22
2022-08-16T11:36:24.751Z,100303.50
2022-08-16T11:38:57.463Z,100301.91
2022-08-16T11:41:24.859Z,100308.97
2022-08-16T11:43:52.866Z,100303.81
2022-08-16T11:46:45.257Z,100316.34
2022-08-16T11:49:09.885Z,100305.41
2022-08-16T11:51:39.496Z,100303.50
2022-08-16T23:32:43.531Z,100450.00
2022-08-16T23:35:09.959Z,100445.34
2022-08-16T23:37:36.380Z,100451.59
2022-08-16T23:40:03.240Z,100457.06
2022-08-16T23:42:44.197Z,100457.06
2022-08-16T23:45:16.464Z,100457.06
2022-08-16T23:47:42.901Z,100464.47
2022-08-16T23:50:09.526Z,100451.59
2022-08-16T23:52:42.263Z,100455.97
2022-08-16T23:55:20.479Z,100452.44
2022-08-16T23:57:46.913Z,100454.66
